createdAt,value
2023-02-12T07:48:20.755Z,1316.25
2023-02-12T07:49:21.037Z,871.88
2023-02-12T07:50:21.243Z,371.25
2023-02-12T07:51:21.505Z,708.75
2023-02-12T07:52:24.914Z,1282.5
2023-02-12T07:53:22.565Z,1254.38
2023-02-12T07:54:23.869Z,956.25
2023-02-12T07:55:24.434Z,635.63
2023-02-12T07:56:24.147Z,517.5
2023-02-12T07:57:25.667Z,286.88
2023-02-12T07:58:25.883Z,151.88
2023-02-12T07:59:25.542Z,140.63
2023-02-12T08:00:26.768Z,146.25
2023-02-12T08:01:26.738Z,146.25
2023-02-12T08:02:27.699Z,219.38
2023-02-12T08:03:29.268Z,247.5
2023-02-12T08:04:29.951Z,753.75
2023-02-12T08:05:30.170Z,804.38
2023-02-12T08:06:30.630Z,736.88
2023-02-12T08:07:30.984Z,562.5
2023-02-12T08:08:32.720Z,388.13
2023-02-12T08:09:32.661Z,365.63
2023-02-12T08:10:37.251Z,528.75
2023-02-12T08:11:33.344Z,163.13
2023-02-12T08:12:34.557Z,112.5
2023-02-12T08:13:35.097Z,118.13
2023-02-12T08:14:36.340Z,106.88
2023-02-12T08:15:35.986Z,112.5
2023-02-12T08:16:37.229Z,106.88
2023-02-12T08:17:37.192Z,118.13
2023-02-12T08:18:38.564Z,129.38
2023-02-12T08:19:42.946Z,146.25
2023-02-12T08:20:39.247Z,174.38
2023-02-12T08:21:39.500Z,196.88
2023-02-12T08:22:39.421Z,365.63
2023-02-12T08:23:40.918Z,663.75
2023-02-12T08:24:40.572Z,1080
2023-02-12T08:25:41.799Z,748.13
2023-02-12T08:26:42.824Z,495
2023-02-12T08:27:43.040Z,506.25
2023-02-12T08:28:43.530Z,523.13
2023-02-12T08:29:43.735Z,669.38
2023-02-12T08:30:44.849Z,444.38
2023-02-12T08:31:45.032Z,360
2023-02-12T08:32:45.236Z,180
2023-02-12T08:33:45.861Z,241.88
2023-02-12T08:34:46.367Z,466.88
2023-02-12T08:35:46.291Z,354.38
2023-02-12T08:36:47.342Z,180
2023-02-12T08:37:47.978Z,146.25
2023-02-12T08:38:48.934Z,146.25
2023-02-12T08:39:50.154Z,157.5
2023-02-12T08:40:51.607Z,382.5
2023-02-12T08:41:51.270Z,523.13
2023-02-12T08:42:51.758Z,416.25
2023-02-12T08:43:53.271Z,416.25
2023-02-12T08:44:53.506Z,528.75
2023-02-12T08:45:54.456Z,556.88
2023-02-12T08:46:53.897Z,450
2023-02-12T08:47:54.392Z,421.88
2023-02-12T08:48:55.169Z,517.5
2023-02-12T08:49:55.391Z,523.13
2023-02-12T08:50:55.648Z,534.38
2023-02-12T08:51:56.014Z,433.13
2023-02-12T08:52:56.867Z,393.75
2023-02-12T08:53:57.095Z,360
2023-02-12T08:54:57.293Z,326.25
2023-02-12T08:55:57.488Z,292.5
2023-02-12T08:56:57.965Z,286.88
2023-02-12T08:57:57.304Z,326.25
2023-02-12T08:58:58.237Z,360
2023-02-12T08:59:59.171Z,286.88
2023-02-12T09:01:00.446Z,253.13
2023-02-12T09:01:59.546Z,303.75
2023-02-12T09:03:00.393Z,286.88
2023-02-12T09:04:02.033Z,258.75
2023-02-12T09:05:01.988Z,230.63
2023-02-12T09:06:03.649Z,202.5
2023-02-12T09:07:03.101Z,253.13
2023-02-12T09:08:04.604Z,303.75
2023-02-12T09:09:04.276Z,208.13
2023-02-12T09:10:05.792Z,151.88
2023-02-12T09:11:06.027Z,140.63
2023-02-12T09:12:06.044Z,140.63
2023-02-12T09:13:06.948Z,140.63
2023-02-12T09:14:08.162Z,146.25
2023-02-12T09:15:08.392Z,168.75
2023-02-12T09:16:09.319Z,253.13
2023-02-12T09:17:08.635Z,343.13
2023-02-12T09:18:09.856Z,337.5
2023-02-12T09:19:11.215Z,410.63
2023-02-12T09:20:10.571Z,517.5
2023-02-12T09:21:11.800Z,630
2023-02-12T09:22:13.175Z,613.13
2023-02-12T09:23:12.419Z,511.88
2023-02-12T09:24:12.377Z,427.5
2023-02-12T09:25:13.607Z,405
2023-02-12T09:26:14.248Z,410.63
2023-02-12T09:27:15.006Z,421.88
2023-02-12T09:28:14.912Z,450
2023-02-12T09:29:15.165Z,320.63
2023-02-12T09:30:14.846Z,213.75
2023-02-12T09:31:16.708Z,466.88
2023-02-12T09:32:15.792Z,669.38
2023-02-12T09:33:16.422Z,691.88
2023-02-12T09:34:18.068Z,652.5
2023-02-12T09:35:18.053Z,680.63
2023-02-12T09:36:19.273Z,731.25
2023-02-12T09:37:19.345Z,731.25
2023-02-12T09:38:19.261Z,736.88
2023-02-12T09:39:20.232Z,691.88
2023-02-12T09:40:21.453Z,613.13
2023-02-12T09:41:21.675Z,421.88
2023-02-12T09:42:21.335Z,281.25
2023-02-12T09:43:22.274Z,450
2023-02-12T09:44:23.406Z,658.13
2023-02-12T09:45:24.336Z,708.75
2023-02-12T09:46:25.596Z,697.5
2023-02-12T09:47:25.694Z,680.63
2023-02-12T09:48:26.391Z,669.38
2023-02-12T09:49:28.023Z,658.13
2023-02-12T09:50:27.657Z,630
2023-02-12T09:51:28.576Z,579.38
2023-02-12T09:52:29.798Z,405
2023-02-12T09:53:31.043Z,326.25
2023-02-12T09:54:30.699Z,298.13
2023-02-12T09:55:31.427Z,258.75
2023-02-12T09:56:32.925Z,286.88
2023-02-12T09:57:32.412Z,365.63
2023-02-12T09:58:33.634Z,500.63
2023-02-12T09:59:34.145Z,590.63
2023-02-12T10:00:34.178Z,646.88
2023-02-12T10:01:36.183Z,686.25
2023-02-12T10:02:36.495Z,658.13
2023-02-12T10:03:37.465Z,613.13
2023-02-12T10:04:42.190Z,596.25
2023-02-12T10:05:38.250Z,534.38
2023-02-12T10:06:38.470Z,534.38
2023-02-12T10:07:39.223Z,562.5
2023-02-12T10:08:41.964Z,556.88
2023-02-12T10:09:39.610Z,511.88
2023-02-12T10:10:40.840Z,562.5
2023-02-12T10:11:42.107Z,635.63
2023-02-12T10:12:42.616Z,613.13
2023-02-12T10:13:46.257Z,573.75
2023-02-12T10:14:43.581Z,624.38
2023-02-12T10:15:44.912Z,585
2023-02-12T10:16:47.556Z,500.63
2023-02-12T10:17:45.348Z,511.88
2023-02-12T10:18:46.610Z,590.63
2023-02-12T10:19:47.237Z,641.25
2023-02-12T10:20:50.903Z,753.75
2023-02-12T10:21:48.435Z,821.25
2023-02-12T10:23:08.026Z,928.13
2023-02-12T10:23:49.341Z,1096.88
2023-02-12T10:24:49.641Z,1288.13
2023-02-12T10:25:51.666Z,1406.25
2023-02-12T10:26:50.424Z,1501.88
2023-02-12T10:27:50.199Z,1406.25
2023-02-12T10:28:51.596Z,1501.88
2023-02-12T10:29:51.826Z,1569.38
2023-02-12T10:30:53.069Z,1524.38
2023-02-12T10:31:54.196Z,1462.5
2023-02-12T10:32:53.771Z,1546.88
2023-02-12T10:33:55.697Z,1608.75
2023-02-12T10:35:01.061Z,1552.5
2023-02-12T10:35:55.220Z,1496.25
2023-02-12T10:36:55.581Z,1513.13
2023-02-12T10:37:56.944Z,1676.25
2023-02-12T10:38:57.833Z,1732.5
2023-02-12T10:39:57.489Z,1659.38
2023-02-12T10:40:58.740Z,1518.75
2023-02-12T10:41:59.252Z,1507.5
2023-02-12T10:42:59.207Z,1715.63
2023-02-12T10:44:00.150Z,1777.5
2023-02-12T10:45:00.484Z,1676.25
2023-02-12T10:46:01.790Z,1659.38
2023-02-12T10:47:01.736Z,1715.63
2023-02-12T10:48:02.783Z,1676.25
2023-02-12T10:49:02.990Z,1569.38
2023-02-12T10:50:03.723Z,1445.63
2023-02-12T10:51:03.694Z,1653.75
2023-02-12T10:52:04.342Z,1760.63
2023-02-12T10:53:06.142Z,1693.13
2023-02-12T10:54:06.346Z,1648.13
2023-02-12T10:55:06.884Z,1608.75
2023-02-12T10:56:08.689Z,1603.13
2023-02-12T10:57:07.310Z,1563.75
2023-02-12T10:58:08.384Z,1591.88
2023-02-12T10:59:09.636Z,1608.75
2023-02-12T11:00:10.592Z,1591.88
2023-02-12T11:01:10.302Z,1591.88
2023-02-12T11:02:11.482Z,1608.75
2023-02-12T11:03:12.034Z,1552.5
2023-02-12T11:04:12.401Z,1366.88
2023-02-12T11:05:13.375Z,1338.75
2023-02-12T11:06:14.279Z,1462.5
2023-02-12T11:07:14.872Z,1507.5
2023-02-12T11:08:14.638Z,1530
2023-02-12T11:09:14.379Z,1580.63
2023-02-12T11:10:15.046Z,1597.5
2023-02-12T11:11:16.265Z,1552.5
2023-02-12T11:12:16.775Z,1496.25
2023-02-12T11:13:16.733Z,1541.25
2023-02-12T11:14:17.404Z,1434.38
2023-02-12T11:15:18.064Z,1243.13
2023-02-12T11:16:20.073Z,1068.75
2023-02-12T11:17:19.479Z,1046.25
2023-02-12T11:18:22.207Z,1108.13
2023-02-12T11:19:21.171Z,1164.38
2023-02-12T11:20:22.334Z,1158.75
2023-02-12T11:21:22.646Z,1237.5
2023-02-12T11:22:22.871Z,1203.75
2023-02-12T11:23:23.386Z,1080
2023-02-12T11:24:23.666Z,1198.13
2023-02-12T11:25:23.901Z,1231.88
2023-02-12T11:26:23.900Z,1063.13
2023-02-12T11:27:24.845Z,765
2023-02-12T11:28:26.639Z,607.5
2023-02-12T11:29:27.002Z,500.63
2023-02-12T11:30:27.484Z,658.13
2023-02-12T11:31:28.350Z,793.13
2023-02-12T11:32:28.645Z,691.88
2023-02-12T11:33:28.325Z,731.25
2023-02-12T11:34:29.570Z,613.13
2023-02-12T11:35:29.922Z,309.38
2023-02-12T11:36:30.506Z,236.25
2023-02-12T11:37:30.448Z,427.5
2023-02-12T11:38:34.031Z,292.5
2023-02-12T11:39:31.960Z,382.5
2023-02-12T11:40:32.897Z,877.5
2023-02-12T11:41:33.828Z,1085.63
2023-02-12T11:42:34.795Z,1018.13
2023-02-12T11:43:35.771Z,961.88
2023-02-12T11:44:36.981Z,967.5
2023-02-12T11:45:37.191Z,860.63
2023-02-12T11:46:38.168Z,472.5
2023-02-12T11:47:39.136Z,742.5
2023-02-12T11:48:39.874Z,871.88
2023-02-12T11:49:42.197Z,303.75
2023-02-12T11:50:42.075Z,213.75
2023-02-12T11:51:42.327Z,663.75
2023-02-12T11:52:42.723Z,911.25
2023-02-12T11:53:43.660Z,472.5
2023-02-12T11:54:44.903Z,438.75
2023-02-12T11:55:44.905Z,703.13
2023-02-12T11:56:45.257Z,736.88
2023-02-12T11:57:46.473Z,393.75
2023-02-12T11:58:47.295Z,360
2023-02-12T11:59:48.235Z,641.25
2023-02-12T12:00:49.588Z,731.25
2023-02-12T12:01:50.189Z,787.5
2023-02-12T12:02:50.393Z,911.25
2023-02-12T12:03:50.335Z,703.13
2023-02-12T12:04:51.547Z,405
2023-02-12T12:05:52.197Z,371.25
2023-02-12T12:06:52.453Z,635.63
2023-02-12T12:07:52.719Z,759.38
2023-02-12T12:08:53.259Z,866.25
2023-02-12T12:09:54.766Z,866.25
2023-02-12T12:10:54.707Z,742.5
2023-02-12T12:11:55.649Z,855
2023-02-12T12:12:56.309Z,793.13
2023-02-12T12:13:56.724Z,708.75
2023-02-12T12:14:57.953Z,984.38
2023-02-12T12:15:58.698Z,973.13
2023-02-12T12:16:59.812Z,658.13
2023-02-12T12:18:01.034Z,641.25
2023-02-12T12:19:01.919Z,916.88
2023-02-12T12:20:02.876Z,1051.88
2023-02-12T12:21:04.513Z,1046.25
2023-02-12T12:22:05.052Z,1046.25
2023-02-12T12:23:04.978Z,1012.5
2023-02-12T12:24:06.476Z,990
2023-02-12T12:25:06.704Z,905.63
2023-02-12T12:26:07.277Z,855
2023-02-12T12:27:07.346Z,579.38
2023-02-12T12:28:07.685Z,495
2023-02-12T12:29:08.506Z,573.75
2023-02-12T12:30:10.286Z,545.63
2023-02-12T12:31:08.997Z,416.25
2023-02-12T12:32:09.598Z,365.63
2023-02-12T12:33:09.529Z,410.63
2023-02-12T12:34:09.742Z,461.25
2023-02-12T12:35:10.997Z,376.88
2023-02-12T12:36:11.919Z,320.63
2023-02-12T12:37:11.155Z,388.13
2023-02-12T12:38:11.103Z,421.88
2023-02-12T12:39:11.907Z,489.38
2023-02-12T12:40:13.199Z,568.13
2023-02-12T12:41:13.443Z,607.5
2023-02-12T12:42:13.682Z,573.75
2023-02-12T12:43:13.939Z,511.88
2023-02-12T12:44:14.153Z,500.63
2023-02-12T12:45:15.080Z,433.13
2023-02-12T12:46:16.671Z,405
2023-02-12T12:47:15.905Z,388.13
2023-02-12T12:48:16.854Z,365.63
2023-02-12T12:49:18.512Z,309.38
2023-02-12T12:50:18.459Z,365.63
2023-02-12T12:51:19.821Z,478.13
2023-02-12T12:52:21.000Z,551.25
2023-02-12T12:53:20.522Z,506.25
2023-02-12T12:54:20.468Z,427.5
2023-02-12T12:55:20.738Z,399.38
2023-02-12T12:56:21.314Z,466.88
2023-02-12T12:57:21.849Z,455.63
2023-02-12T12:58:22.398Z,438.75
2023-02-12T12:59:22.657Z,433.13
2023-02-12T13:00:25.441Z,421.88
2023-02-12T13:01:23.780Z,421.88
2023-02-12T13:02:24.676Z,427.5
2023-02-12T13:03:24.913Z,410.63
2023-02-12T13:04:25.343Z,382.5
2023-02-12T13:05:25.579Z,388.13
2023-02-12T13:06:27.096Z,365.63
2023-02-12T13:07:27.405Z,337.5
2023-02-12T13:08:27.848Z,315
2023-02-12T13:09:27.875Z,264.38
2023-02-12T13:10:27.992Z,241.88
2023-02-12T13:11:29.814Z,264.38
2023-02-12T13:12:28.851Z,281.25
2023-02-12T13:13:29.358Z,275.63
2023-02-12T13:14:29.306Z,286.88
2023-02-12T13:15:30.815Z,309.38
2023-02-12T13:16:31.403Z,298.13
2023-02-12T13:17:31.357Z,309.38
2023-02-12T13:18:32.022Z,309.38
2023-02-12T13:19:32.440Z,315
2023-02-12T13:20:32.348Z,331.88
2023-02-12T13:21:33.685Z,337.5
2023-02-12T13:22:37.100Z,320.63
2023-02-12T13:23:34.103Z,298.13
2023-02-12T13:24:35.059Z,309.38
2023-02-12T13:25:36.286Z,315
2023-02-12T13:26:36.511Z,309.38
2023-02-12T13:27:39.682Z,309.38
2023-02-12T13:28:37.918Z,309.38
2023-02-12T13:29:39.050Z,309.38
2023-02-12T13:30:39.300Z,315
2023-02-12T13:31:49.705Z,315
2023-02-12T13:32:39.828Z,315
2023-02-12T13:33:42.245Z,303.75
2023-02-12T13:34:41.500Z,286.88
2023-02-12T13:35:41.437Z,275.63
2023-02-12T13:36:42.790Z,275.63
2023-02-12T13:37:43.039Z,270
2023-02-12T13:38:42.689Z,270
2023-02-12T13:39:45.372Z,275.63
2023-02-12T13:40:44.080Z,270
2023-02-12T13:41:45.277Z,264.38
2023-02-12T13:42:45.549Z,275.63
2023-02-12T13:43:46.500Z,281.25
2023-02-12T13:44:47.445Z,281.25
2023-02-12T13:45:47.670Z,286.88
2023-02-12T13:46:48.366Z,286.88
2023-02-12T13:47:47.760Z,286.88
2023-02-12T13:48:49.271Z,286.88
2023-02-12T13:49:49.008Z,281.25
2023-02-12T13:50:50.233Z,281.25
2023-02-12T13:51:50.847Z,275.63
2023-02-12T13:52:50.784Z,275.63
2023-02-12T13:53:51.723Z,270
2023-02-12T13:54:53.233Z,270
2023-02-12T13:55:53.601Z,270
2023-02-12T13:56:53.652Z,264.38
2023-02-12T13:57:53.567Z,264.38
2023-02-12T13:58:54.222Z,258.75
2023-02-12T13:59:55.594Z,258.75
2023-02-12T14:00:55.540Z,253.13
2023-02-12T14:01:58.690Z,253.13
2023-02-12T14:02:56.621Z,247.5
2023-02-12T14:03:57.122Z,247.5
2023-02-12T14:04:57.059Z,247.5
2023-02-12T14:05:57.542Z,241.88
2023-02-12T14:06:59.834Z,241.88
2023-02-12T14:07:57.574Z,241.88
2023-02-12T14:08:57.948Z,236.25
2023-02-12T14:09:59.257Z,230.63
2023-02-12T14:10:59.211Z,225
2023-02-12T14:11:59.851Z,219.38
2023-02-12T14:13:01.407Z,225
2023-02-12T14:14:01.052Z,225
2023-02-12T14:15:02.329Z,219.38
2023-02-12T14:16:03.770Z,219.38
2023-02-12T14:17:03.713Z,225
2023-02-12T14:18:06.770Z,225
2023-02-12T14:19:04.126Z,219.38
2023-02-12T14:20:05.590Z,196.88
2023-02-12T14:21:05.519Z,191.25
2023-02-12T14:22:06.853Z,213.75
2023-02-12T14:23:07.100Z,219.38
2023-02-12T14:24:07.145Z,219.38
2023-02-12T14:25:08.166Z,213.75
2023-02-12T14:26:10.048Z,213.75
2023-02-12T14:27:09.990Z,208.13
2023-02-12T14:28:11.404Z,208.13
2023-02-12T14:29:11.368Z,202.5
2023-02-12T14:30:12.194Z,202.5
2023-02-12T14:31:13.421Z,202.5
2023-02-12T14:32:13.608Z,185.63
2023-02-12T14:33:14.119Z,180
2023-02-12T14:34:14.084Z,185.63
2023-02-12T14:35:15.008Z,185.63
2023-02-12T14:36:15.980Z,185.63
2023-02-12T14:37:17.591Z,185.63
2023-02-12T14:38:18.012Z,191.25
2023-02-12T14:39:18.195Z,196.88
2023-02-12T14:40:18.265Z,196.88
2023-02-12T14:41:19.240Z,196.88
2023-02-12T14:42:19.185Z,191.25
2023-02-12T14:43:20.122Z,185.63
2023-02-12T14:44:21.643Z,185.63
2023-02-12T14:45:21.575Z,185.63
2023-02-12T14:46:21.983Z,185.63
2023-02-12T14:47:21.671Z,180
2023-02-12T14:48:22.641Z,180
2023-02-12T14:49:24.007Z,180
2023-02-12T14:50:24.201Z,174.38
2023-02-12T14:51:25.432Z,174.38
2023-02-12T14:52:26.135Z,174.38
2023-02-12T14:53:26.657Z,174.38
2023-02-12T14:54:26.325Z,174.38
2023-02-12T14:55:27.831Z,168.75
2023-02-12T14:56:27.758Z,168.75
2023-02-12T14:57:28.720Z,168.75
2023-02-12T14:58:29.735Z,168.75
2023-02-12T14:59:31.213Z,163.13
2023-02-12T15:00:31.021Z,163.13
2023-02-12T15:01:32.171Z,163.13
2023-02-12T15:02:32.179Z,157.5
2023-02-12T15:03:33.413Z,157.5
2023-02-12T15:04:33.671Z,157.5
2023-02-12T15:05:34.173Z,151.88
2023-02-12T15:06:35.408Z,151.88
2023-02-12T15:07:36.477Z,146.25
2023-02-12T15:08:36.788Z,146.25
2023-02-12T15:09:37.732Z,146.25
2023-02-12T15:10:38.049Z,140.63
2023-02-12T15:11:38.279Z,140.63
2023-02-12T15:12:37.927Z,135
2023-02-12T15:13:38.872Z,135
2023-02-12T15:14:38.837Z,135
2023-02-12T15:15:40.183Z,135
2023-02-12T15:16:40.761Z,129.38
2023-02-12T15:17:40.750Z,129.38
2023-02-12T15:18:41.709Z,123.75
2023-02-12T15:19:42.187Z,123.75
2023-02-12T15:20:42.953Z,123.75
2023-02-12T15:21:43.617Z,123.75
2023-02-12T15:22:44.963Z,118.13
2023-02-12T15:23:45.520Z,118.13
2023-02-12T15:24:45.737Z,118.13
2023-02-12T15:25:46.709Z,112.5
2023-02-12T15:26:47.265Z,112.5
2023-02-12T15:27:47.224Z,112.5
2023-02-12T15:28:47.851Z,106.88
2023-02-12T15:29:48.166Z,101.25
2023-02-12T15:30:49.268Z,95.63
2023-02-12T15:31:50.604Z,90
2023-02-12T15:32:50.854Z,84.38
2023-02-12T15:33:50.500Z,73.13
2023-02-12T15:34:51.716Z,61.88
2023-02-12T15:35:52.636Z,61.88
2023-02-12T15:36:53.274Z,67.5
2023-02-12T15:37:54.324Z,73.13
2023-02-12T15:38:55.061Z,73.13
2023-02-12T15:39:55.274Z,73.13
2023-02-12T15:40:56.066Z,78.75
2023-02-12T15:41:57.099Z,73.13
2023-02-12T15:42:57.307Z,67.5
2023-02-12T15:43:57.228Z,67.5
2023-02-12T15:44:58.330Z,67.5
2023-02-12T15:45:59.443Z,67.5
2023-02-12T15:46:59.246Z,61.88
2023-02-12T15:48:00.807Z,61.88
2023-02-12T15:49:00.802Z,56.25
2023-02-12T15:50:01.447Z,56.25
2023-02-12T15:51:02.801Z,50.63
2023-02-12T15:52:03.011Z,50.63
2023-02-12T15:53:03.626Z,50.63
2023-02-12T15:54:03.922Z,50.63
2023-02-12T15:55:04.583Z,45
2023-02-12T15:56:06.394Z,45
2023-02-12T15:57:06.056Z,39.38
2023-02-12T15:58:07.272Z,33.75
2023-02-12T15:59:07.639Z,33.75
2023-02-12T16:00:07.876Z,33.75
2023-02-12T16:01:08.552Z,33.75
2023-02-12T16:02:09.129Z,28.13
2023-02-12T16:03:08.796Z,28.13
2023-02-12T16:04:09.989Z,16.88
2023-02-12T16:05:11.230Z,16.88
2023-02-12T16:06:11.657Z,16.88
2023-02-12T16:07:11.337Z,16.88
2023-02-12T16:08:12.402Z,11.25
2023-02-12T16:09:12.346Z,11.25
2023-02-12T16:10:13.570Z,11.25
2023-02-12T16:11:14.871Z,11.25
2023-02-12T16:12:15.224Z,11.25
2023-02-12T16:13:15.428Z,11.25
2023-02-12T16:14:15.069Z,11.25
2023-02-12T16:15:16.369Z,11.25
2023-02-12T16:16:16.839Z,11.25
2023-02-12T16:17:17.064Z,5.63
2023-02-12T16:18:18.060Z,5.63
2023-02-12T16:19:18.282Z,5.63
2023-02-12T16:20:18.634Z,5.63
2023-02-12T16:21:18.747Z,5.63
2023-02-12T16:22:20.003Z,5.63
2023-02-12T16:23:21.540Z,5.63
2023-02-12T16:24:20.765Z,5.63
2023-02-12T16:25:21.413Z,5.63
2023-02-12T16:26:23.013Z,5.63
2023-02-12T16:27:22.109Z,5.63
2023-02-12T16:28:23.607Z,5.63
2023-02-12T16:29:23.822Z,0
2023-02-12T16:30:24.362Z,0
2023-02-12T16:31:24.735Z,0
2023-02-12T16:32:24.746Z,0
2023-02-12T16:33:25.667Z,0
2023-02-12T16:34:26.590Z,0
2023-02-12T16:35:26.811Z,0
2023-02-12T16:36:26.878Z,0
2023-02-12T16:37:27.811Z,0
2023-02-12T16:38:29.442Z,0
2023-02-12T16:39:29.423Z,0
2023-02-12T16:40:30.650Z,0
2023-02-12T16:41:31.324Z,0
2023-02-12T16:42:31.537Z,0
2023-02-12T16:43:32.027Z,0
2023-02-12T16:44:32.541Z,0
2023-02-12T16:45:32.482Z,0
2023-02-12T16:46:33.164Z,0
2023-02-12T16:47:34.654Z,0
2023-02-12T16:48:34.879Z,0
2023-02-12T16:49:34.823Z,0
2023-02-12T16:50:35.863Z,0
2023-02-12T16:51:36.459Z,0
2023-02-12T16:52:37.415Z,0
2023-02-12T16:53:39.042Z,0
2023-02-12T16:54:39.567Z,0
2023-02-12T16:55:39.820Z,0
2023-02-12T16:56:40.349Z,0
2023-02-12T16:57:40.318Z,0
2023-02-12T16:58:41.518Z,0
2023-02-12T16:59:43.181Z,0
2023-02-12T17:00:42.945Z,0
2023-02-12T17:01:43.071Z,0
2023-02-12T17:02:43.062Z,0
2023-02-12T17:03:44.732Z,0
2023-02-12T17:04:45.012Z,0
2023-02-12T17:05:45.960Z,0
2023-02-12T17:06:45.915Z,0
2023-02-12T17:07:46.547Z,0
2023-02-12T17:08:47.858Z,0
2023-02-12T17:09:48.074Z,0
2023-02-12T17:10:48.994Z,0
2023-02-12T17:11:50.017Z,0
2023-02-12T17:12:49.639Z,0
2023-02-12T17:13:50.628Z,0
2023-02-12T17:14:50.986Z,0
2023-02-12T17:15:51.900Z,0
2023-02-12T17:16:52.776Z,0
2023-02-12T17:17:54.032Z,0
2023-02-12T17:18:54.667Z,0
2023-02-12T17:19:54.602Z,0
2023-02-12T17:20:53.942Z,0
2023-02-12T17:21:55.116Z,0
2023-02-12T17:22:55.196Z,0
2023-02-12T17:23:58.185Z,0
2023-02-12T17:24:57.682Z,0
2023-02-12T17:25:57.920Z,0
2023-02-12T17:26:58.103Z,0
2023-02-12T17:27:59.675Z,0
2023-02-12T17:29:00.198Z,0
2023-02-12T17:30:00.183Z,0
2023-02-12T17:31:01.060Z,0
2023-02-12T17:32:01.842Z,0
2023-02-12T17:33:02.670Z,0
2023-02-12T17:34:03.188Z,0
2023-02-12T17:35:05.908Z,0
2023-02-12T17:36:04.159Z,0
2023-02-12T17:37:04.113Z,0
2023-02-12T17:38:04.837Z,0
2023-02-12T17:39:05.876Z,0
2023-02-12T17:40:05.599Z,0
2023-02-12T17:41:07.732Z,0
2023-02-12T17:42:07.546Z,0
2023-02-12T17:43:08.757Z,0
2023-02-12T17:44:10.240Z,0
2023-02-12T17:45:10.166Z,0
2023-02-12T17:46:13.332Z,0
2023-02-12T17:47:10.890Z,0
2023-02-12T17:48:11.513Z,0
2023-02-12T17:49:11.725Z,0
2023-02-12T17:50:11.960Z,0
2023-02-12T17:51:12.614Z,0
2023-02-12T17:52:13.114Z,0
2023-02-12T17:53:13.308Z,0
2023-02-12T17:54:14.092Z,0
2023-02-12T17:55:14.321Z,0
2023-02-12T17:56:14.529Z,0
2023-02-12T17:57:16.504Z,0
2023-02-12T17:58:15.690Z,0
2023-02-12T17:59:16.104Z,0
2023-02-12T18:00:17.327Z,0
2023-02-12T18:01:18.362Z,0
2023-02-12T18:02:18.235Z,0
2023-02-12T18:03:19.439Z,0
2023-02-12T18:04:20.233Z,0
2023-02-12T18:05:20.547Z,0
2023-02-12T18:06:20.182Z,0
2023-02-12T18:07:21.374Z,0
2023-02-12T18:08:21.855Z,0
2023-02-12T18:09:22.173Z,0
2023-02-12T18:10:23.104Z,0
2023-02-12T18:11:22.746Z,0
2023-02-12T18:12:24.019Z,0
2023-02-12T18:13:23.950Z,0
2023-02-12T18:14:25.448Z,0
2023-02-12T18:15:25.677Z,0
2023-02-12T18:16:25.836Z,0
2023-02-12T18:17:26.785Z,0
2023-02-12T18:18:27.283Z,0
2023-02-12T18:19:27.204Z,0
2023-02-12T18:20:27.126Z,0
2023-02-12T18:21:28.076Z,0
2023-02-12T18:22:29.120Z,0
2023-02-12T18:23:30.322Z,0
2023-02-12T18:24:30.948Z,0
2023-02-12T18:25:31.463Z,0
2023-02-12T18:26:31.694Z,0
2023-02-12T18:27:32.036Z,0
2023-02-12T18:28:33.533Z,0
2023-02-12T18:29:33.463Z,0
2023-02-12T18:30:33.910Z,0
2023-02-12T18:31:34.770Z,0
2023-02-12T18:32:35.081Z,0
2023-02-12T18:33:35.569Z,0
2023-02-12T18:34:35.854Z,0
2023-02-12T18:35:35.462Z,0
2023-02-12T18:36:36.390Z,0
2023-02-12T18:37:36.690Z,0
2023-02-12T18:38:36.898Z,0
2023-02-12T18:39:37.230Z,0
2023-02-12T18:40:37.236Z,0
2023-02-12T18:41:37.624Z,0
2023-02-12T18:42:39.001Z,0
2023-02-12T18:43:42.519Z,0
2023-02-12T18:44:39.922Z,0
2023-02-12T18:45:40.131Z,0
2023-02-12T18:46:41.016Z,0
2023-02-12T18:47:40.993Z,0
2023-02-12T18:48:42.215Z,0
2023-02-12T18:49:41.959Z,0
2023-02-12T18:50:42.881Z,0
2023-02-12T18:51:42.808Z,0
2023-02-12T18:52:42.987Z,0
2023-02-12T18:53:44.203Z,0
2023-02-12T18:54:45.537Z,0
2023-02-12T18:55:45.751Z,0
2023-02-12T18:56:45.780Z,0
2023-02-12T18:57:46.404Z,0
2023-02-12T18:58:47.625Z,0
2023-02-12T18:59:47.654Z,0
2023-02-12T19:00:48.875Z,0
2023-02-12T19:01:49.530Z,0
2023-02-12T19:02:50.260Z,0
2023-02-12T19:03:50.452Z,0
2023-02-12T19:04:51.257Z,0
2023-02-12T19:05:51.521Z,0
2023-02-12T19:06:51.476Z,0
2023-02-12T19:07:52.393Z,0
2023-02-12T19:08:52.309Z,0
2023-02-12T19:09:53.846Z,0
2023-02-12T19:10:54.213Z,0
2023-02-12T19:11:54.808Z,0
2023-02-12T19:12:55.895Z,0
2023-02-12T19:13:56.053Z,0
2023-02-12T19:14:56.350Z,0
2023-02-12T19:15:56.614Z,0
2023-02-12T19:16:55.994Z,0
2023-02-12T19:17:57.215Z,0
2023-02-12T19:18:57.134Z,0
2023-02-12T19:19:58.072Z,0
2023-02-12T19:20:58.603Z,0
2023-02-12T19:21:58.721Z,0
2023-02-12T19:23:01.866Z,0
2023-02-12T19:24:01.087Z,0
2023-02-12T19:25:04.219Z,0
2023-02-12T19:26:01.745Z,0
2023-02-12T19:27:01.107Z,0
2023-02-12T19:28:02.342Z,0
2023-02-12T19:29:02.839Z,0
2023-02-12T19:30:03.051Z,0
2023-02-12T19:31:04.797Z,0
2023-02-12T19:32:04.511Z,0
2023-02-12T19:33:04.530Z,0
2023-02-12T19:34:05.741Z,0
2023-02-12T19:35:06.424Z,0
2023-02-12T19:36:07.668Z,0
2023-02-12T19:37:09.406Z,0
2023-02-12T19:38:08.208Z,0
2023-02-12T19:39:08.827Z,0
2023-02-12T19:40:10.437Z,0
2023-02-12T19:41:10.970Z,0
2023-02-12T19:42:11.208Z,0
2023-02-12T19:43:10.711Z,0
2023-02-12T19:44:11.930Z,0
2023-02-12T19:45:12.449Z,0
2023-02-12T19:46:13.172Z,0
2023-02-12T19:47:13.387Z,0
2023-02-12T19:48:13.317Z,0
2023-02-12T19:49:13.968Z,0
2023-02-12T19:50:15.325Z,0
2023-02-12T19:51:15.837Z,0
2023-02-12T19:52:15.749Z,0
2023-02-12T19:53:16.030Z,0
2023-02-12T19:54:16.262Z,0
2023-02-12T19:55:16.735Z,0
2023-02-12T19:56:17.244Z,0
2023-02-12T19:57:18.677Z,0
2023-02-12T19:58:17.311Z,0
2023-02-12T19:59:18.518Z,0
2023-02-12T20:00:18.730Z,0
2023-02-12T20:01:18.800Z,0
2023-02-12T20:02:19.735Z,0
2023-02-12T20:03:19.872Z,0
2023-02-12T20:04:20.794Z,0
2023-02-12T20:05:22.005Z,0
2023-02-12T20:06:21.360Z,0
2023-02-12T20:07:22.277Z,0
2023-02-12T20:08:22.485Z,0
2023-02-12T20:09:22.466Z,0
2023-02-12T20:10:24.019Z,0
2023-02-12T20:11:24.246Z,0
2023-02-12T20:12:23.886Z,0
2023-02-12T20:13:25.172Z,0
2023-02-12T20:14:24.848Z,0
2023-02-12T20:15:26.052Z,0
2023-02-12T20:16:25.937Z,0
2023-02-12T20:17:26.851Z,0
2023-02-12T20:18:27.503Z,0
2023-02-12T20:19:29.027Z,0
2023-02-12T20:20:29.623Z,0
2023-02-12T20:21:29.541Z,0
2023-02-12T20:22:30.755Z,0
2023-02-12T20:23:31.373Z,0
2023-02-12T20:24:31.857Z,0
2023-02-12T20:25:32.189Z,0
2023-02-12T20:26:32.426Z,0
2023-02-12T20:27:32.934Z,0
2023-02-12T20:28:33.443Z,0
2023-02-12T20:29:33.657Z,0
2023-02-12T20:30:33.311Z,0
2023-02-12T20:31:35.212Z,0
2023-02-12T20:32:34.871Z,0
2023-02-12T20:33:35.586Z,0
2023-02-12T20:34:50.404Z,0
2023-02-12T20:35:35.936Z,0
2023-02-12T20:36:36.148Z,0
2023-02-12T20:37:36.355Z,0
2023-02-12T20:38:36.866Z,0
2023-02-12T20:39:36.510Z,0
2023-02-12T20:40:38.102Z,0
2023-02-12T20:41:38.404Z,0
2023-02-12T20:42:38.314Z,0
2023-02-12T20:43:38.753Z,0
2023-02-12T20:44:39.271Z,0
2023-02-12T20:45:39.480Z,0
2023-02-12T20:46:39.683Z,0
2023-02-12T20:47:40.337Z,0
2023-02-12T20:48:41.584Z,0
2023-02-12T20:49:41.580Z,0
2023-02-12T20:50:41.823Z,0
2023-02-12T20:51:43.035Z,0
2023-02-12T20:52:43.548Z,0
2023-02-12T20:53:43.694Z,0
2023-02-12T20:54:44.812Z,0
2023-02-12T20:55:46.081Z,0
2023-02-12T20:56:46.671Z,0
2023-02-12T20:57:46.920Z,0
2023-02-12T20:58:47.141Z,0
2023-02-12T20:59:47.771Z,0
2023-02-12T21:00:48.392Z,0
2023-02-12T21:01:49.684Z,0
2023-02-12T21:02:50.215Z,0
2023-02-12T21:03:51.012Z,0
2023-02-12T21:04:51.935Z,0
2023-02-12T21:05:51.835Z,0
2023-02-12T21:06:53.367Z,0
2023-02-12T21:07:53.295Z,0
2023-02-12T21:08:54.260Z,0
2023-02-12T21:09:55.472Z,0
2023-02-12T21:10:55.815Z,0
2023-02-12T21:11:55.788Z,0
2023-02-12T21:12:57.323Z,0
2023-02-12T21:14:27.129Z,0
2023-02-12T21:14:57.791Z,0